createdAt,value
2018-06-18T00:00:56.829Z,17.12
2018-06-18T00:01:56.829Z,17.09
2018-06-18T00:02:57.010Z,17.16
2018-06-18T00:03:56.822Z,17.12
2018-06-18T00:04:56.824Z,17.12
2018-06-18T00:05:56.826Z,17.19
2018-06-18T00:06:56.833Z,17.12
2018-06-18T00:07:57.039Z,17.12
2018-06-18T00:08:56.830Z,17.19
2018-06-18T00:09:56.840Z,17.11
2018-06-18T00:10:57.031Z,17.16
2018-06-18T00:11:56.832Z,17.14
2018-06-18T00:12:56.850Z,17.12
2018-06-18T00:13:56.849Z,17.16
2018-06-18T00:14:56.849Z,17.09
2018-06-18T00:15:57.046Z,17.08
2018-06-18T00:16:56.855Z,17.02
2018-06-18T00:17:57.064Z,17.02
2018-06-18T00:18:56.852Z,17.08
2018-06-18T00:19:56.864Z,17.06
2018-06-18T00:20:56.876Z,17.04
2018-06-18T00:21:57.060Z,17.04
2018-06-18T00:22:56.871Z,17.04
2018-06-18T00:23:56.863Z,16.94
2018-06-18T00:24:57.070Z,16.96
2018-06-18T00:25:56.881Z,17.02
2018-06-18T00:26:56.869Z,16.97
2018-06-18T00:27:56.887Z,17.01
2018-06-18T00:28:56.886Z,17.04
2018-06-18T00:29:57.081Z,17.01
2018-06-18T00:30:56.881Z,17.04
2018-06-18T00:31:56.884Z,16.99
2018-06-18T00:32:56.888Z,16.99
2018-06-18T00:33:56.892Z,16.96
2018-06-18T00:34:56.892Z,17.01
2018-06-18T00:35:56.907Z,17.06
2018-06-18T00:36:56.913Z,17.08
2018-06-18T00:37:56.901Z,17.09
2018-06-18T00:38:56.915Z,17.11
2018-06-18T00:39:56.913Z,17.06
2018-06-18T00:40:56.907Z,17.14
2018-06-18T00:41:56.920Z,17.09
2018-06-18T00:42:57.141Z,17.08
2018-06-18T00:43:56.933Z,17.14
2018-06-18T00:44:56.917Z,17.12
2018-06-18T00:45:56.920Z,17.11
2018-06-18T00:46:57.145Z,17.05
2018-06-18T00:47:57.125Z,17.05
2018-06-18T00:48:56.927Z,17.05
2018-06-18T00:49:56.961Z,17.09
2018-06-18T00:50:57.147Z,17.14
2018-06-18T00:51:56.937Z,17.06
2018-06-18T00:52:56.939Z,17.06
2018-06-18T00:53:56.940Z,17.05
2018-06-18T00:54:56.957Z,17.05
2018-06-18T00:55:56.949Z,17.16
2018-06-18T00:56:57.155Z,17.12
2018-06-18T00:57:56.951Z,17.14
2018-06-18T00:58:56.956Z,17.12
2018-06-18T00:59:56.973Z,17.16
2018-06-18T01:00:56.971Z,17.11
2018-06-18T01:01:56.961Z,17.19
2018-06-18T01:02:56.964Z,17.16
2018-06-18T01:03:57.193Z,17.23
2018-06-18T01:04:56.971Z,17.16
2018-06-18T01:05:56.973Z,17.20
2018-06-18T01:06:56.975Z,17.22
2018-06-18T01:07:56.988Z,17.22
2018-06-18T01:08:57.197Z,17.22
2018-06-18T01:09:57.004Z,17.16
2018-06-18T01:10:56.988Z,17.20
2018-06-18T01:11:57.016Z,17.16
2018-06-18T01:12:57.206Z,17.15
2018-06-18T01:13:56.997Z,17.14
2018-06-18T01:14:57.012Z,17.22
2018-06-18T01:15:57.002Z,17.22
2018-06-18T01:16:57.005Z,17.12
2018-06-18T01:17:57.007Z,17.23
2018-06-18T01:18:57.025Z,17.22
2018-06-18T01:19:57.013Z,17.14
2018-06-18T01:20:57.029Z,17.12
2018-06-18T01:21:57.030Z,17.11
2018-06-18T01:22:57.019Z,17.16
2018-06-18T01:23:57.055Z,17.12
2018-06-18T01:24:57.038Z,17.12
2018-06-18T01:25:57.030Z,17.09
2018-06-18T01:26:57.031Z,17.09
2018-06-18T01:27:57.048Z,17.14
2018-06-18T01:28:57.053Z,17.12
2018-06-18T01:29:57.059Z,17.09
2018-06-18T01:30:57.068Z,17.12
2018-06-18T01:31:57.266Z,17.19
2018-06-18T01:32:57.052Z,17.08
2018-06-18T01:33:57.056Z,17.15
2018-06-18T01:34:57.271Z,17.12
2018-06-18T01:35:57.265Z,17.11
2018-06-18T01:36:57.067Z,17.19
2018-06-18T01:37:57.285Z,17.14
2018-06-18T01:38:57.095Z,17.14
2018-06-18T01:39:57.277Z,17.22
2018-06-18T01:40:57.092Z,17.08
2018-06-18T01:41:57.083Z,17.14
2018-06-18T01:42:57.290Z,17.05
2018-06-18T01:43:57.087Z,17.16
2018-06-18T01:44:57.101Z,17.05
2018-06-18T01:45:57.103Z,17.09
2018-06-18T01:46:57.095Z,17.09
2018-06-18T01:47:57.101Z,17.01
2018-06-18T01:48:57.122Z,17.11
2018-06-18T01:49:57.111Z,17.11
2018-06-18T01:50:57.324Z,17.11
2018-06-18T01:51:57.127Z,17.09
2018-06-18T01:52:57.117Z,16.94
2018-06-18T01:53:57.122Z,17.04
2018-06-18T01:54:57.122Z,16.96
2018-06-18T01:55:57.126Z,17.01
2018-06-18T01:56:57.143Z,16.97
2018-06-18T01:57:57.145Z,17.01
2018-06-18T01:58:57.152Z,17.05
2018-06-18T01:59:57.151Z,17.05
2018-06-18T02:00:57.140Z,16.96
2018-06-18T02:01:57.157Z,16.94
2018-06-18T02:02:57.353Z,17.02
2018-06-18T02:03:57.161Z,16.99
2018-06-18T02:04:57.179Z,16.96
2018-06-18T02:05:57.173Z,17.01
2018-06-18T02:06:57.163Z,16.99
2018-06-18T02:07:57.197Z,17.08
2018-06-18T02:08:57.194Z,17.01
2018-06-18T02:09:57.173Z,16.99
2018-06-18T02:10:57.400Z,17.02
2018-06-18T02:11:57.209Z,17.01
2018-06-18T02:12:57.384Z,16.97
2018-06-18T02:13:57.213Z,16.90
2018-06-18T02:14:57.210Z,16.91
2018-06-18T02:15:57.189Z,16.89
2018-06-18T02:16:57.423Z,17.01
2018-06-18T02:17:57.402Z,16.91
2018-06-18T02:18:57.203Z,16.86
2018-06-18T02:19:57.408Z,16.91
2018-06-18T02:20:57.230Z,16.91
2018-06-18T02:21:57.226Z,16.86
2018-06-18T02:22:57.416Z,16.94
2018-06-18T02:23:57.222Z,16.87
2018-06-18T02:24:57.232Z,16.90
2018-06-18T02:25:57.221Z,16.84
2018-06-18T02:26:57.426Z,16.93
2018-06-18T02:27:57.446Z,16.89
2018-06-18T02:28:57.238Z,16.87
2018-06-18T02:29:57.240Z,16.87
2018-06-18T02:30:57.444Z,16.83
2018-06-18T02:31:57.240Z,16.89
2018-06-18T02:32:57.280Z,16.86
2018-06-18T02:33:57.247Z,16.87
2018-06-18T02:34:57.268Z,16.89
2018-06-18T02:35:57.255Z,16.84
2018-06-18T02:36:57.272Z,16.86
2018-06-18T02:37:57.262Z,16.87
2018-06-18T02:38:57.292Z,16.89
2018-06-18T02:39:57.267Z,16.81
2018-06-18T02:40:57.283Z,16.86
2018-06-18T02:41:57.296Z,16.86
2018-06-18T02:42:57.276Z,16.87
2018-06-18T02:43:57.283Z,16.84
2018-06-18T02:44:57.295Z,16.83
2018-06-18T02:45:57.489Z,16.78
2018-06-18T02:46:57.288Z,16.78
2018-06-18T02:47:57.495Z,16.83
2018-06-18T02:48:57.313Z,16.83
2018-06-18T02:49:57.300Z,16.84
2018-06-18T02:50:57.308Z,16.81
2018-06-18T02:51:57.306Z,16.81
2018-06-18T02:52:57.308Z,16.86
2018-06-18T02:53:57.328Z,16.71
2018-06-18T02:54:57.313Z,16.79
2018-06-18T02:55:57.329Z,16.81
2018-06-18T02:56:57.322Z,16.74
2018-06-18T02:57:57.326Z,16.72
2018-06-18T02:58:57.327Z,16.78
2018-06-18T02:59:57.329Z,16.78
2018-06-18T03:00:57.333Z,16.76
2018-06-18T03:01:57.351Z,16.76
2018-06-18T03:02:57.341Z,16.76
2018-06-18T03:03:57.342Z,16.76
2018-06-18T03:04:57.345Z,16.81
2018-06-18T03:05:57.360Z,16.79
2018-06-18T03:06:57.353Z,16.76
2018-06-18T03:07:57.369Z,16.76
2018-06-18T03:08:57.357Z,16.74
2018-06-18T03:09:57.373Z,16.86
2018-06-18T03:10:57.366Z,16.81
2018-06-18T03:11:57.370Z,16.84
2018-06-18T03:12:57.373Z,16.76
2018-06-18T03:13:57.378Z,16.84
2018-06-18T03:14:57.387Z,16.79
2018-06-18T03:15:57.380Z,16.79
2018-06-18T03:16:57.401Z,16.78
2018-06-18T03:17:57.396Z,16.86
2018-06-18T03:18:57.390Z,16.84
2018-06-18T03:19:57.409Z,16.90
2018-06-18T03:20:57.399Z,16.86
2018-06-18T03:21:57.401Z,16.84
2018-06-18T03:22:57.404Z,16.86
2018-06-18T03:23:57.406Z,16.81
2018-06-18T03:24:57.407Z,16.84
2018-06-18T03:25:57.416Z,16.89
2018-06-18T03:26:57.430Z,16.86
2018-06-18T03:27:57.416Z,16.81
2018-06-18T03:28:57.422Z,16.86
2018-06-18T03:29:57.435Z,16.89
2018-06-18T03:30:57.450Z,16.89
2018-06-18T03:31:57.445Z,16.86
2018-06-18T03:32:57.436Z,16.87
2018-06-18T03:33:57.449Z,16.87
2018-06-18T03:34:57.471Z,16.86
2018-06-18T03:35:57.440Z,16.86
2018-06-18T03:36:57.471Z,16.94
2018-06-18T03:37:57.453Z,16.96
2018-06-18T03:38:57.452Z,16.94
2018-06-18T03:39:57.472Z,16.94
2018-06-18T03:40:57.458Z,16.97
2018-06-18T03:41:57.473Z,16.96
2018-06-18T03:42:57.464Z,16.89
2018-06-18T03:43:57.483Z,16.91
2018-06-18T03:44:57.481Z,16.87
2018-06-18T03:45:57.474Z,16.99
2018-06-18T03:46:57.492Z,16.96
2018-06-18T03:47:57.479Z,16.93
2018-06-18T03:48:57.494Z,16.90
2018-06-18T03:49:57.502Z,16.91
2018-06-18T03:50:57.500Z,16.94
2018-06-18T03:51:57.490Z,16.87
2018-06-18T03:52:57.509Z,16.94
2018-06-18T03:53:57.512Z,16.94
2018-06-18T03:54:57.511Z,17.01
2018-06-18T03:55:57.516Z,16.96
2018-06-18T03:56:57.510Z,16.97
2018-06-18T03:57:57.526Z,16.91
2018-06-18T03:58:57.539Z,17.01
2018-06-18T03:59:57.517Z,16.89
2018-06-18T04:00:57.538Z,16.97
2018-06-18T04:01:57.521Z,16.94
2018-06-18T04:02:57.540Z,16.93
2018-06-18T04:03:57.530Z,16.91
2018-06-18T04:04:57.542Z,16.91
2018-06-18T04:05:57.537Z,16.91
2018-06-18T04:06:57.561Z,16.91
2018-06-18T04:07:57.553Z,16.87
2018-06-18T04:08:57.546Z,16.86
2018-06-18T04:09:57.549Z,16.89
2018-06-18T04:10:57.553Z,16.93
2018-06-18T04:11:57.556Z,16.87
2018-06-18T04:12:57.560Z,16.87
2018-06-18T04:13:57.565Z,16.93
2018-06-18T04:14:57.579Z,16.97
2018-06-18T04:15:57.568Z,16.89
2018-06-18T04:16:57.584Z,16.87
2018-06-18T04:17:57.578Z,16.93
2018-06-18T04:18:57.577Z,16.89
2018-06-18T04:19:57.593Z,16.91
2018-06-18T04:20:57.588Z,16.93
2018-06-18T04:21:57.789Z,16.86
2018-06-18T04:22:57.598Z,16.89
2018-06-18T04:23:57.594Z,16.89
2018-06-18T04:24:57.599Z,16.97
2018-06-18T04:25:57.600Z,16.94
2018-06-18T04:26:57.806Z,16.89
2018-06-18T04:27:57.606Z,16.99
2018-06-18T04:28:57.812Z,17.01
2018-06-18T04:29:57.615Z,16.90
2018-06-18T04:30:57.647Z,16.99
2018-06-18T04:31:57.638Z,17.01
2018-06-18T04:32:57.836Z,16.89
2018-06-18T04:33:57.626Z,16.96
2018-06-18T04:34:57.634Z,16.93
2018-06-18T04:35:57.632Z,16.89
2018-06-18T04:36:57.633Z,17.02
2018-06-18T04:37:57.638Z,16.89
2018-06-18T04:38:57.641Z,17.01
2018-06-18T04:39:57.648Z,16.91
2018-06-18T04:40:57.647Z,16.97
2018-06-18T04:41:57.651Z,16.91
2018-06-18T04:42:57.653Z,16.96
2018-06-18T04:43:57.657Z,17.02
2018-06-18T04:44:57.662Z,16.99
2018-06-18T04:45:57.663Z,16.96
2018-06-18T04:46:57.683Z,17.01
2018-06-18T04:47:57.672Z,17.01
2018-06-18T04:48:57.880Z,16.87
2018-06-18T04:49:57.878Z,17.04
2018-06-18T04:50:57.679Z,16.94
2018-06-18T04:51:57.895Z,17.04
2018-06-18T04:52:57.685Z,16.96
2018-06-18T04:53:57.696Z,17.01
2018-06-18T04:54:57.906Z,16.99
2018-06-18T04:55:57.700Z,17.04
2018-06-18T04:56:57.913Z,17.09
2018-06-18T04:57:57.716Z,17.04
2018-06-18T04:58:57.713Z,16.99
2018-06-18T04:59:57.708Z,16.99
2018-06-18T05:00:57.721Z,16.97
2018-06-18T05:01:57.723Z,17.05
2018-06-18T05:02:57.727Z,17.05
2018-06-18T05:03:57.734Z,16.97
2018-06-18T05:04:57.725Z,16.93
2018-06-18T05:05:57.729Z,16.97
2018-06-18T05:06:57.953Z,16.96
2018-06-18T05:07:57.753Z,17.01
2018-06-18T05:08:57.753Z,17.09
2018-06-18T05:09:57.741Z,17.08
2018-06-18T05:10:57.945Z,17.12
2018-06-18T05:11:57.949Z,17.11
2018-06-18T05:12:57.815Z,17.08
2018-06-18T05:13:57.753Z,17.08
2018-06-18T05:14:57.770Z,17.06
2018-06-18T05:15:57.766Z,17.06
2018-06-18T05:16:57.974Z,17.09
2018-06-18T05:17:57.774Z,17.06
2018-06-18T05:18:57.765Z,17.08
2018-06-18T05:19:57.774Z,17.06
2018-06-18T05:20:57.773Z,17.15
2018-06-18T05:21:57.779Z,17.11
2018-06-18T05:22:57.777Z,17.14
2018-06-18T05:23:57.782Z,17.08
2018-06-18T05:24:57.785Z,17.16
2018-06-18T05:25:57.788Z,17.14
2018-06-18T05:26:57.800Z,17.20
2018-06-18T05:27:57.805Z,17.14
2018-06-18T05:28:58.002Z,17.22
2018-06-18T05:29:57.801Z,17.15
2018-06-18T05:30:57.827Z,17.16
2018-06-18T05:31:57.806Z,17.22
2018-06-18T05:32:58.015Z,17.19
2018-06-18T05:33:57.827Z,17.22
2018-06-18T05:34:57.818Z,17.19
2018-06-18T05:35:58.026Z,17.22
2018-06-18T05:36:57.823Z,17.27
2018-06-18T05:37:57.826Z,17.24
2018-06-18T05:38:57.832Z,17.34
2018-06-18T05:39:57.832Z,17.27
2018-06-18T05:40:58.042Z,17.27
2018-06-18T05:41:57.842Z,17.33
2018-06-18T05:42:57.843Z,17.30
2018-06-18T05:43:57.845Z,17.33
2018-06-18T05:44:57.849Z,17.24
2018-06-18T05:45:57.853Z,17.38
2018-06-18T05:46:57.866Z,17.36
2018-06-18T05:47:57.868Z,17.36
2018-06-18T05:48:57.874Z,17.34
2018-06-18T05:49:57.890Z,17.39
2018-06-18T05:50:57.872Z,17.44
2018-06-18T05:51:57.877Z,17.39
2018-06-18T05:52:57.876Z,17.39
2018-06-18T05:53:58.082Z,17.39
2018-06-18T05:54:57.884Z,17.42
2018-06-18T05:55:57.904Z,17.39
2018-06-18T05:56:57.889Z,17.42
2018-06-18T05:57:57.904Z,17.44
2018-06-18T05:58:57.921Z,17.41
2018-06-18T05:59:58.102Z,17.41
2018-06-18T06:00:57.901Z,17.41
2018-06-18T06:01:57.922Z,17.38
2018-06-18T06:02:58.136Z,17.38
2018-06-18T06:03:57.914Z,17.42
2018-06-18T06:04:57.929Z,17.36
2018-06-18T06:05:58.169Z,17.56
2018-06-18T06:06:57.951Z,17.48
2018-06-18T06:07:57.958Z,17.48
2018-06-18T06:08:57.938Z,17.52
2018-06-18T06:09:58.143Z,17.60
2018-06-18T06:10:58.137Z,17.54
2018-06-18T06:11:57.949Z,17.51
2018-06-18T06:12:58.017Z,17.54
2018-06-18T06:13:57.956Z,17.52
2018-06-18T06:14:58.160Z,17.56
2018-06-18T06:15:57.959Z,17.51
2018-06-18T06:16:57.982Z,17.51
2018-06-18T06:17:57.957Z,17.51
2018-06-18T06:18:57.970Z,17.52
2018-06-18T06:19:57.963Z,17.54
2018-06-18T06:20:57.969Z,17.57
2018-06-18T06:21:57.973Z,17.57
2018-06-18T06:22:58.001Z,17.57
2018-06-18T06:23:57.992Z,17.63
2018-06-18T06:24:57.981Z,17.59
2018-06-18T06:25:57.999Z,17.65
2018-06-18T06:26:58.187Z,17.64
2018-06-18T06:27:57.992Z,17.76
2018-06-18T06:28:58.011Z,17.74
2018-06-18T06:29:57.999Z,17.70
2018-06-18T06:30:58.020Z,17.71
2018-06-18T06:31:58.006Z,17.78
2018-06-18T06:32:58.005Z,17.79
2018-06-18T06:33:58.011Z,17.80
2018-06-18T06:34:58.015Z,17.83
2018-06-18T06:35:58.017Z,17.82
2018-06-18T06:36:58.019Z,17.89
2018-06-18T06:37:58.022Z,17.89
2018-06-18T06:38:58.230Z,17.97
2018-06-18T06:39:58.030Z,17.90
2018-06-18T06:40:58.042Z,17.95
2018-06-18T06:41:58.046Z,18.03
2018-06-18T06:42:58.040Z,17.95
2018-06-18T06:43:58.244Z,17.89
2018-06-18T06:44:58.048Z,17.89
2018-06-18T06:45:58.051Z,17.92
2018-06-18T06:46:58.256Z,17.94
2018-06-18T06:47:58.056Z,17.89
2018-06-18T06:48:58.068Z,17.94
2018-06-18T06:49:58.266Z,17.89
2018-06-18T06:50:58.070Z,17.94
2018-06-18T06:51:58.074Z,17.90
2018-06-18T06:52:58.077Z,18.01
2018-06-18T06:53:58.090Z,17.89
2018-06-18T06:54:58.296Z,17.95
2018-06-18T06:55:58.107Z,17.85
2018-06-18T06:56:58.094Z,17.86
2018-06-18T06:57:58.097Z,17.94
2018-06-18T06:58:58.096Z,17.87
2018-06-18T06:59:58.301Z,17.87
2018-06-18T07:00:58.103Z,17.98
2018-06-18T07:01:58.118Z,17.95
2018-06-18T07:02:58.135Z,17.86
2018-06-18T07:03:58.115Z,17.92
2018-06-18T07:04:58.117Z,17.87
2018-06-18T07:05:58.134Z,17.98
2018-06-18T07:06:58.122Z,17.92
2018-06-18T07:07:58.195Z,17.89
2018-06-18T07:08:58.163Z,17.92
2018-06-18T07:09:58.133Z,17.94
2018-06-18T07:10:58.147Z,17.92
2018-06-18T07:11:58.155Z,17.95
2018-06-18T07:12:58.344Z,17.98
2018-06-18T07:13:58.148Z,17.92
2018-06-18T07:14:58.152Z,17.95
2018-06-18T07:15:58.154Z,18.01
2018-06-18T07:16:58.373Z,18.00
2018-06-18T07:17:58.165Z,17.98
2018-06-18T07:18:58.176Z,17.98
2018-06-18T07:19:58.168Z,17.98
2018-06-18T07:20:58.373Z,18.00
2018-06-18T07:21:58.392Z,17.98
2018-06-18T07:22:58.189Z,18.05
2018-06-18T07:23:58.204Z,17.97
2018-06-18T07:24:58.185Z,18.10
2018-06-18T07:25:58.190Z,18.05
2018-06-18T07:26:58.223Z,18.13
2018-06-18T07:27:58.423Z,18.11
2018-06-18T07:28:58.417Z,18.11
2018-06-18T07:29:58.408Z,18.15
2018-06-18T07:30:58.298Z,18.20
2018-06-18T07:31:58.210Z,18.31
2018-06-18T07:32:58.234Z,18.35
2018-06-18T07:33:58.228Z,18.38
2018-06-18T07:34:58.252Z,18.34
2018-06-18T07:35:58.240Z,18.41
2018-06-18T07:36:58.253Z,18.55
2018-06-18T07:37:58.244Z,18.62
2018-06-18T07:38:58.233Z,18.58
2018-06-18T07:39:58.248Z,18.70
2018-06-18T07:40:58.242Z,18.73
2018-06-18T07:41:58.245Z,18.83
2018-06-18T07:42:58.262Z,18.98
2018-06-18T07:43:58.252Z,18.99
2018-06-18T07:44:58.257Z,18.99
2018-06-18T07:45:58.286Z,18.98
2018-06-18T07:46:58.264Z,18.98
2018-06-18T07:47:58.268Z,18.93
2018-06-18T07:48:58.295Z,18.99
2018-06-18T07:49:58.487Z,18.98
2018-06-18T07:50:58.291Z,18.93
2018-06-18T07:51:58.282Z,18.90
2018-06-18T07:52:58.285Z,18.95
2018-06-18T07:53:58.303Z,18.89
2018-06-18T07:54:58.290Z,18.90
2018-06-18T07:55:58.502Z,18.89
2018-06-18T07:56:58.299Z,18.98
2018-06-18T07:57:58.308Z,19.08
2018-06-18T07:58:58.310Z,19.15
2018-06-18T07:59:58.314Z,19.18
2018-06-18T08:00:58.326Z,19.24
2018-06-18T08:01:58.320Z,19.21
2018-06-18T08:02:58.324Z,19.18
2018-06-18T08:03:58.528Z,19.30
2018-06-18T08:04:58.339Z,19.22
2018-06-18T08:05:58.345Z,19.19
2018-06-18T08:06:58.338Z,19.26
2018-06-18T08:07:58.353Z,19.26
2018-06-18T08:08:58.350Z,19.24
2018-06-18T08:09:58.563Z,19.19
2018-06-18T08:10:58.350Z,19.15
2018-06-18T08:11:58.371Z,19.15
2018-06-18T08:12:58.371Z,19.12
2018-06-18T08:13:58.368Z,19.16
2018-06-18T08:14:58.368Z,19.15
2018-06-18T08:15:58.380Z,19.15
2018-06-18T08:16:58.375Z,19.14
2018-06-18T08:17:58.580Z,19.09
2018-06-18T08:18:58.381Z,19.11
2018-06-18T08:19:58.386Z,19.11
2018-06-18T08:20:58.391Z,19.08
2018-06-18T08:21:58.394Z,19.08
2018-06-18T08:22:58.399Z,19.14
2018-06-18T08:23:58.603Z,19.14
2018-06-18T08:24:58.409Z,19.19
2018-06-18T08:25:58.412Z,19.16
2018-06-18T08:26:58.484Z,19.14
2018-06-18T08:27:58.416Z,19.12
2018-06-18T08:28:58.423Z,19.12
2018-06-18T08:29:58.425Z,19.21
2018-06-18T08:30:58.429Z,19.22
2018-06-18T08:31:58.437Z,19.24
2018-06-18T08:32:58.446Z,19.30
2018-06-18T08:33:58.441Z,19.37
2018-06-18T08:34:58.442Z,19.37
2018-06-18T08:35:58.541Z,19.36
2018-06-18T08:36:58.452Z,19.55
2018-06-18T08:37:58.661Z,19.59
2018-06-18T08:38:58.474Z,19.70
2018-06-18T08:39:58.461Z,19.74
2018-06-18T08:40:58.476Z,19.73
2018-06-18T08:41:58.469Z,19.70
2018-06-18T08:42:58.475Z,19.85
2018-06-18T08:43:58.479Z,19.73
2018-06-18T08:44:58.481Z,19.82
2018-06-18T08:45:58.486Z,19.76
2018-06-18T08:46:58.488Z,19.81
2018-06-18T08:47:58.698Z,19.77
2018-06-18T08:48:58.498Z,19.88
2018-06-18T08:49:58.512Z,19.89
2018-06-18T08:50:58.504Z,19.96
2018-06-18T08:51:58.513Z,20.00
2018-06-18T08:52:58.728Z,20.03
2018-06-18T08:53:58.520Z,20.03
2018-06-18T08:54:58.723Z,20.00
2018-06-18T08:55:58.745Z,20.06
2018-06-18T08:56:58.540Z,20.11
2018-06-18T08:57:58.562Z,20.22
2018-06-18T08:58:58.538Z,20.22
2018-06-18T08:59:58.540Z,20.24
2018-06-18T09:00:58.564Z,20.16
2018-06-18T09:01:58.560Z,20.19
2018-06-18T09:02:58.554Z,20.31
2018-06-18T09:03:58.556Z,20.43
2018-06-18T09:04:58.566Z,20.40
2018-06-18T09:05:58.567Z,20.52
2018-06-18T09:06:58.569Z,20.62
2018-06-18T09:07:58.776Z,20.70
2018-06-18T09:08:58.577Z,20.67
2018-06-18T09:09:58.582Z,20.62
2018-06-18T09:10:58.790Z,20.51
2018-06-18T09:11:58.590Z,20.50
2018-06-18T09:12:58.593Z,20.55
2018-06-18T09:13:58.803Z,20.47
2018-06-18T09:14:58.601Z,20.43
2018-06-18T09:15:58.651Z,20.37
2018-06-18T09:16:58.611Z,20.36
2018-06-18T09:17:58.617Z,20.31
2018-06-18T09:18:58.628Z,20.26
2018-06-18T09:19:58.831Z,20.25
2018-06-18T09:20:58.830Z,20.21
2018-06-18T09:21:58.644Z,20.06
2018-06-18T09:22:58.636Z,20.02
2018-06-18T09:23:58.660Z,20.04
2018-06-18T09:24:58.643Z,20.02
2018-06-18T09:25:58.649Z,20.02
2018-06-18T09:26:58.664Z,20.00
2018-06-18T09:27:58.884Z,19.86
2018-06-18T09:28:58.875Z,20.02
2018-06-18T09:29:58.681Z,19.92
2018-06-18T09:30:58.689Z,19.94
2018-06-18T09:31:58.697Z,19.95
2018-06-18T09:32:58.691Z,20.03
2018-06-18T09:33:58.683Z,20.02
2018-06-18T09:34:58.686Z,19.95
2018-06-18T09:35:58.693Z,20.04
2018-06-18T09:36:58.705Z,20.00
2018-06-18T09:37:58.716Z,19.99
2018-06-18T09:38:58.702Z,20.02
2018-06-18T09:39:58.724Z,20.02
2018-06-18T09:40:58.726Z,19.96
2018-06-18T09:41:58.715Z,20.02
2018-06-18T09:42:58.730Z,20.00
2018-06-18T09:43:58.925Z,19.95
2018-06-18T09:44:58.932Z,19.96
2018-06-18T09:45:58.736Z,19.96
2018-06-18T09:46:58.950Z,19.94
2018-06-18T09:47:58.798Z,19.95
2018-06-18T09:48:58.756Z,19.84
2018-06-18T09:49:58.748Z,19.82
2018-06-18T09:50:58.757Z,19.84
2018-06-18T09:51:58.760Z,19.88
2018-06-18T09:52:58.975Z,19.96
2018-06-18T09:53:58.778Z,19.94
2018-06-18T09:54:58.780Z,19.85
2018-06-18T09:55:58.786Z,19.88
2018-06-18T09:56:58.794Z,19.85
2018-06-18T09:57:58.794Z,19.85
2018-06-18T09:58:59.003Z,19.86
2018-06-18T09:59:58.993Z,19.82
2018-06-18T10:00:58.796Z,19.79
2018-06-18T10:01:58.799Z,19.73
2018-06-18T10:02:58.804Z,19.79
2018-06-18T10:03:58.821Z,19.79
2018-06-18T10:04:58.810Z,19.76
2018-06-18T10:05:59.030Z,19.82
2018-06-18T10:06:59.024Z,19.86
2018-06-18T10:07:58.837Z,19.74
2018-06-18T10:08:59.031Z,19.77
2018-06-18T10:09:58.832Z,19.76
2018-06-18T10:10:58.835Z,19.76
2018-06-18T10:11:58.862Z,19.77
2018-06-18T10:12:59.046Z,19.82
2018-06-18T10:13:58.853Z,19.77
2018-06-18T10:14:58.862Z,19.74
2018-06-18T10:15:58.863Z,19.77
2018-06-18T10:16:58.863Z,19.77
2018-06-18T10:17:58.867Z,19.81
2018-06-18T10:18:58.871Z,19.76
2018-06-18T10:19:58.877Z,19.82
2018-06-18T10:20:58.878Z,19.76
2018-06-18T10:21:59.086Z,19.89
2018-06-18T10:22:58.887Z,19.92
2018-06-18T10:23:58.901Z,19.96
2018-06-18T10:24:58.897Z,20.09
2018-06-18T10:25:58.902Z,20.25
2018-06-18T10:26:58.905Z,20.39
2018-06-18T10:27:59.125Z,20.29
2018-06-18T10:28:58.912Z,20.40
2018-06-18T10:29:59.122Z,20.40
2018-06-18T10:30:58.978Z,20.48
2018-06-18T10:31:59.131Z,20.47
2018-06-18T10:32:58.930Z,20.52
2018-06-18T10:33:58.955Z,20.41
2018-06-18T10:34:58.941Z,20.39
2018-06-18T10:35:59.157Z,20.32
2018-06-18T10:36:58.948Z,20.43
2018-06-18T10:37:58.963Z,20.32
2018-06-18T10:38:58.955Z,20.31
2018-06-18T10:39:59.174Z,20.19
2018-06-18T10:40:59.166Z,20.28
2018-06-18T10:41:59.171Z,20.25
2018-06-18T10:42:59.174Z,20.24
2018-06-18T10:43:58.991Z,20.11
2018-06-18T10:44:58.981Z,20.16
2018-06-18T10:45:58.997Z,20.13
2018-06-18T10:46:58.988Z,20.14
2018-06-18T10:47:58.996Z,20.06
2018-06-18T10:48:59.034Z,20.14
2018-06-18T10:49:59.003Z,20.09
2018-06-18T10:50:59.023Z,20.09
2018-06-18T10:51:59.024Z,20.00
2018-06-18T10:52:59.030Z,20.07
2018-06-18T10:53:59.027Z,20.02
2018-06-18T10:54:59.047Z,20.02
2018-06-18T10:55:59.043Z,20.03
2018-06-18T10:56:59.083Z,20.00
2018-06-18T10:57:59.252Z,20.06
2018-06-18T10:58:59.040Z,20.04
2018-06-18T10:59:59.056Z,19.96
2018-06-18T11:00:59.061Z,20.02
2018-06-18T11:01:59.085Z,19.95
2018-06-18T11:02:59.084Z,20.03
2018-06-18T11:03:59.063Z,19.99
2018-06-18T11:04:59.070Z,19.96
2018-06-18T11:05:59.273Z,19.89
2018-06-18T11:06:59.090Z,19.99
2018-06-18T11:07:59.079Z,19.95
2018-06-18T11:08:59.100Z,19.94
2018-06-18T11:09:59.097Z,20.03
2018-06-18T11:10:59.305Z,20.00
2018-06-18T11:11:59.302Z,19.96
2018-06-18T11:12:59.112Z,20.03
2018-06-18T11:13:59.115Z,19.99
2018-06-18T11:14:59.321Z,20.00
2018-06-18T11:15:59.348Z,20.04
2018-06-18T11:16:59.539Z,20.11
2018-06-18T11:17:59.124Z,20.00
2018-06-18T11:18:59.128Z,20.02
2018-06-18T11:19:59.160Z,19.99
2018-06-18T11:20:59.136Z,20.00
2018-06-18T11:21:59.370Z,20.13
2018-06-18T11:22:59.201Z,20.04
2018-06-18T11:23:59.149Z,20.16
2018-06-18T11:24:59.357Z,20.03
2018-06-18T11:25:59.157Z,20.09
2018-06-18T11:26:59.254Z,20.04
2018-06-18T11:27:59.166Z,19.99
2018-06-18T11:28:59.378Z,20.03
2018-06-18T11:29:59.221Z,20.03
2018-06-18T11:30:59.182Z,20.00
2018-06-18T11:31:59.182Z,20.10
2018-06-18T11:32:59.188Z,20.04
2018-06-18T11:33:59.397Z,20.09
2018-06-18T11:34:59.253Z,20.11
2018-06-18T11:35:59.199Z,20.13
2018-06-18T11:36:59.210Z,20.22
2018-06-18T11:37:59.210Z,20.24
2018-06-18T11:38:59.214Z,20.19
2018-06-18T11:39:59.240Z,20.29
2018-06-18T11:40:59.223Z,20.32
2018-06-18T11:41:59.362Z,20.29
2018-06-18T11:42:59.230Z,20.29
2018-06-18T11:43:59.239Z,20.36
2018-06-18T11:44:59.243Z,20.31
2018-06-18T11:45:59.246Z,20.29
2018-06-18T11:46:59.248Z,20.26
2018-06-18T11:47:59.488Z,20.28
2018-06-18T11:48:59.273Z,20.32
2018-06-18T11:49:59.473Z,20.28
2018-06-18T11:50:59.270Z,20.34
2018-06-18T11:51:59.268Z,20.36
2018-06-18T11:52:59.487Z,20.29
2018-06-18T11:53:59.283Z,20.34
2018-06-18T11:54:59.284Z,20.37
2018-06-18T11:55:59.347Z,20.39
2018-06-18T11:56:59.293Z,20.36
2018-06-18T11:57:59.309Z,20.36
2018-06-18T11:58:59.310Z,20.34
2018-06-18T11:59:59.304Z,20.28
2018-06-18T12:00:59.309Z,20.34
2018-06-18T12:01:59.365Z,20.29
2018-06-18T12:02:59.520Z,20.37
2018-06-18T12:03:59.386Z,20.29
2018-06-18T12:04:59.330Z,20.31
2018-06-18T12:05:59.335Z,20.31
2018-06-18T12:06:59.393Z,20.21
2018-06-18T12:07:59.543Z,20.24
2018-06-18T12:08:59.344Z,20.29
2018-06-18T12:09:59.392Z,20.26
2018-06-18T12:10:59.353Z,20.14
2018-06-18T12:11:59.358Z,20.26
2018-06-18T12:12:59.568Z,20.25
2018-06-18T12:13:59.371Z,20.14
2018-06-18T12:14:59.571Z,20.26
2018-06-18T12:15:59.389Z,20.21
2018-06-18T12:16:59.381Z,20.32
2018-06-18T12:17:59.387Z,20.28
2018-06-18T12:18:59.416Z,20.40
2018-06-18T12:19:59.406Z,20.32
2018-06-18T12:20:59.614Z,20.39
2018-06-18T12:21:59.401Z,20.40
2018-06-18T12:22:59.411Z,20.47
2018-06-18T12:23:59.613Z,20.51
2018-06-18T12:24:59.424Z,20.44
2018-06-18T12:25:59.422Z,20.60
2018-06-18T12:26:59.423Z,20.56
2018-06-18T12:27:59.442Z,20.66
2018-06-18T12:28:59.436Z,20.66
2018-06-18T12:29:59.451Z,20.66
2018-06-18T12:30:59.440Z,20.62
2018-06-18T12:31:59.456Z,20.70
2018-06-18T12:32:59.651Z,20.70
2018-06-18T12:33:59.456Z,20.77
2018-06-18T12:34:59.460Z,20.77
2018-06-18T12:35:59.458Z,20.81
2018-06-18T12:36:59.465Z,20.82
2018-06-18T12:37:59.470Z,20.81
2018-06-18T12:38:59.474Z,20.87
2018-06-18T12:39:59.486Z,20.92
2018-06-18T12:40:59.479Z,20.93
2018-06-18T12:41:59.487Z,20.81
2018-06-18T12:42:59.488Z,20.85
2018-06-18T12:43:59.491Z,20.97
2018-06-18T12:44:59.496Z,20.96
2018-06-18T12:45:59.514Z,20.88
2018-06-18T12:46:59.538Z,20.96
2018-06-18T12:47:59.519Z,20.99
2018-06-18T12:48:59.528Z,20.90
2018-06-18T12:49:59.731Z,20.92
2018-06-18T12:50:59.531Z,20.87
2018-06-18T12:51:59.524Z,20.93
2018-06-18T12:52:59.529Z,20.84